This is the latest recevied weather packets stored in our database for station/object VA3WWD-2. If no packets are shown the sender has not sent any weather packets the latest 1 day(s).
| Time | Temp. | Humidity | Pressure | Rain* | Wind** | Luminosity | Snow |
|---|---|---|---|---|---|---|---|
| 1778093481 | 7.78° C | 39% | - | 0 mm | 0 m/s | - | - |
| 1778093183 | 6.67° C | 38% | - | 0 mm | 0 m/s | - | - |
| 1778091988 | 7.78° C | 39% | - | 0 mm | 0 m/s | - | - |
| 1778091389 | 7.78° C | 38% | - | 0 mm | 0 m/s | - | - |
| 1778091091 | 7.22° C | 39% | - | 0 mm | 0 m/s | - | - |
| 1778081521 | 3.33° C | 59% | - | 0 mm | 0 m/s | - | - |
| 1778080922 | 2.78° C | 61% | - | 0 mm | 0 m/s | - | - |
| 1778079727 | 2.22° C | 62% | - | 0 mm | 0 m/s | - | - |
| 1778079429 | 3.33° C | 61% | - | 0 mm | 0 m/s | - | - |
| 1778079128 | 3.33° C | 63% | - | 0 mm | 0 m/s | - | - |
| 1778078231 | 3.89° C | 69% | - | 0 mm | 0 m/s | - | - |
| 1778077635 | 3.33° C | 70% | - | 0 mm | 0 m/s | - | - |
| 1778077036 | 3.33° C | 71% | - | 0 mm | 0 m/s | - | - |
| 1778066571 | 4.44° C | 61% | - | 0 mm | 0 m/s | - | - |
| 1778066273 | 5° C | 61% | - | 0 mm | 0 m/s | - | - |
| 1778065975 | 5° C | 61% | - | 0 mm | 0 m/s | - | - |
| 1778065674 | 5.56° C | 61% | - | 0 mm | 0 m/s | - | - |
| 1778065376 | 4.44° C | 61% | - | 0 mm | 0 m/s | - | - |
| 1778065078 | 5.56° C | 61% | - | 0 mm | 0 m/s | - | - |
| 1778064777 | 5.56° C | 61% | - | 0 mm | 0 m/s | - | - |
| 1778064479 | 5° C | 61% | - | 0 mm | 0 m/s | - | - |
| 1778062685 | 5° C | 60% | - | 0 mm | 0 m/s | - | - |
| 1778062086 | 5° C | 60% | - | 0 mm | 0 m/s | - | - |
| 1778059696 | 5.56° C | 60% | - | 0 mm | 0 m/s | - | - |
| 1778058498 | 5° C | 60% | - | 0 mm | 0 m/s | - | - |
* Rain latest hour (hover to see other rain measurements)
** Current wind speed in m/s (hover to see current wind gust speed)